Time;durP1;ratioP1;P1;durP2;ratioP2;P2;SDS_P1;SDS_P2;PMS_P1;PMS_P2;Temp;Humidity;BMP_temperature;BMP_pressure;BME280_temperature;BME280_humidity;BME280_pressure;Samples;Min_cycle;Max_cycle;Signal;HPM_P1;HPM_P2
2023/04/03 00:02:22;;;;;;;3.25;1.30;;;;;;;;;;5012968;28;88308;-84
2023/04/03 00:04:49;;;;;;;4.50;1.30;;;;;;;;;;5022642;28;89090;-82
2023/04/03 00:07:15;;;;;;;5.75;1.35;;;;;;;;;;5021422;28;88117;-81
2023/04/03 00:09:42;;;;;;;4.20;1.10;;;;;;;;;;5004285;28;88374;-80
2023/04/03 00:12:08;;;;;;;7.20;1.27;;;;;;;;;;5017838;28;90328;-80
2023/04/03 00:14:35;;;;;;;2.83;1.15;;;;;;;;;;5017584;28;88433;-81
2023/04/03 00:17:01;;;;;;;2.58;1.20;;;;;;;;;;5002390;28;90722;-81
2023/04/03 00:19:28;;;;;;;4.57;1.00;;;;;;;;;;5013658;28;88814;-81
2023/04/03 00:21:54;;;;;;;5.13;1.27;;;;;;;;;;5020192;28;87618;-81
2023/04/03 00:24:21;;;;;;;2.05;1.02;;;;;;;;;;5015609;28;88996;-81
2023/04/03 00:26:47;;;;;;;3.63;1.30;;;;;;;;;;5006034;28;90752;-80
2023/04/03 00:29:14;;;;;;;4.30;1.15;;;;;;;;;;5021138;27;91088;-80
2023/04/03 00:31:40;;;;;;;1.77;1.10;;;;;;;;;;5012775;28;89683;-80
2023/04/03 00:34:07;;;;;;;3.72;1.20;;;;;;;;;;5023944;28;88001;-80
2023/04/03 00:36:34;;;;;;;2.65;1.10;;;;;;;;;;5034657;27;88234;-80
2023/04/03 00:39:01;;;;;;;2.70;1.10;;;;;;;;;;5035980;27;88061;-79
2023/04/03 00:41:27;;;;;;;2.17;1.10;;;;;;;;;;5043320;27;88351;-81
2023/04/03 00:43:54;;;;;;;1.95;1.00;;;;;;;;;;5028957;27;88854;-81
2023/04/03 00:46:20;;;;;;;2.40;1.02;;;;;;;;;;5023513;28;91153;-80
2023/04/03 00:48:47;;;;;;;3.70;1.15;;;;;;;;;;5016893;28;88785;-80
2023/04/03 00:51:16;;;;;;;3.17;1.40;;;;;;;;;;5009642;28;89449;-80
2023/04/03 00:53:47;;;;;;;5.25;1.20;;;;;;;;;;5023769;28;88626;-80
2023/04/03 00:56:17;;;;;;;3.08;1.30;;;;;;;;;;5024359;28;90684;-81
2023/04/03 00:58:59;;;;;;;3.97;1.27;;;;;;;;;;5042548;28;88764;-80
2023/04/03 01:01:26;;;;;;;6.05;1.38;;;;;;;;;;5041954;27;90877;-80
2023/04/03 01:03:54;;;;;;;2.50;1.10;;;;;;;;;;5041387;27;87887;-81
2023/04/03 01:06:24;;;;;;;3.40;1.10;;;;;;;;;;5018394;28;89889;-82
2023/04/03 01:08:52;;;;;;;2.63;1.20;;;;;;;;;;5038867;27;95599;-80
2023/04/03 01:11:20;;;;;;;2.78;1.20;;;;;;;;;;5002836;28;91707;-81
2023/04/03 01:13:48;;;;;;;2.85;1.10;;;;;;;;;;5007079;28;92294;-80
2023/04/03 01:16:15;;;;;;;8.23;1.40;;;;;;;;;;4996599;28;92766;-80
2023/04/03 01:18:42;;;;;;;3.78;1.20;;;;;;;;;;5000139;28;94544;-80
2023/04/03 01:21:16;;;;;;;5.53;1.20;;;;;;;;;;4994184;27;98171;-80
2023/04/03 01:24:03;;;;;;;3.97;1.30;;;;;;;;;;5021982;28;94765;-80
2023/04/03 01:26:29;;;;;;;3.20;1.10;;;;;;;;;;4997788;28;94862;-80
2023/04/03 01:28:58;;;;;;;4.75;1.15;;;;;;;;;;5018943;27;95809;-80
2023/04/03 01:31:27;;;;;;;2.53;0.90;;;;;;;;;;5011698;28;93004;-80
2023/04/03 01:33:55;;;;;;;2.33;1.10;;;;;;;;;;4986704;28;94652;-80
2023/04/03 01:36:24;;;;;;;2.55;1.00;;;;;;;;;;5009947;28;92556;-80
2023/04/03 01:38:51;;;;;;;3.92;1.30;;;;;;;;;;5005768;28;92530;-81
2023/04/03 01:41:17;;;;;;;5.63;1.23;;;;;;;;;;5020616;28;92538;-81
2023/04/03 01:43:45;;;;;;;4.07;1.25;;;;;;;;;;5000140;28;97061;-80
2023/04/03 01:46:12;;;;;;;2.85;1.17;;;;;;;;;;5016752;28;92559;-81
2023/04/03 01:48:39;;;;;;;2.75;1.08;;;;;;;;;;5013831;28;92866;-81
2023/04/03 01:51:05;;;;;;;1.70;1.00;;;;;;;;;;5014658;28;92413;-81
2023/04/03 01:53:32;;;;;;;2.13;1.30;;;;;;;;;;5018882;28;92487;-81
2023/04/03 01:55:58;;;;;;;3.95;1.20;;;;;;;;;;5025464;28;95396;-81
2023/04/03 01:58:25;;;;;;;4.50;1.20;;;;;;;;;;5039378;28;92846;-82
2023/04/03 02:00:53;;;;;;;2.83;1.17;;;;;;;;;;5037798;28;95560;-82
2023/04/03 02:03:20;;;;;;;2.50;0.93;;;;;;;;;;5018701;27;92963;-80
2023/04/03 02:05:46;;;;;;;2.55;1.25;;;;;;;;;;5023739;28;92474;-81
2023/04/03 02:08:13;;;;;;;5.20;1.25;;;;;;;;;;5024592;28;94861;-80
2023/04/03 02:10:40;;;;;;;3.13;1.00;;;;;;;;;;5007758;28;92805;-80
2023/04/03 02:13:06;;;;;;;3.28;1.30;;;;;;;;;;5014706;28;94700;-80
2023/04/03 02:15:34;;;;;;;3.78;1.17;;;;;;;;;;4996996;28;94980;-80
2023/04/03 02:18:00;;;;;;;3.78;1.10;;;;;;;;;;5014553;28;92608;-80
2023/04/03 02:20:33;;;;;;;3.08;1.13;;;;;;;;;;4999903;28;92600;-81
2023/04/03 02:22:59;;;;;;;3.50;1.10;;;;;;;;;;5014747;28;94992;-80
2023/04/03 02:25:26;;;;;;;3.58;1.10;;;;;;;;;;5014927;28;91598;-81
2023/04/03 02:27:52;;;;;;;3.55;1.08;;;;;;;;;;5002699;28;92576;-81
2023/04/03 02:30:19;;;;;;;2.92;1.20;;;;;;;;;;5008455;28;92483;-79
2023/04/03 02:32:45;;;;;;;6.07;1.70;;;;;;;;;;5021733;27;95360;-79
2023/04/03 02:35:12;;;;;;;4.68;1.15;;;;;;;;;;5015853;28;95726;-79
2023/04/03 02:37:39;;;;;;;3.88;1.20;;;;;;;;;;5000319;28;92356;-80
2023/04/03 02:40:06;;;;;;;4.05;1.38;;;;;;;;;;5006351;28;95176;-79
2023/04/03 02:42:34;;;;;;;2.50;1.13;;;;;;;;;;5013071;28;94766;-80
2023/04/03 02:45:02;;;;;;;3.63;1.30;;;;;;;;;;5004725;28;92280;-80
2023/04/03 02:47:29;;;;;;;4.43;1.23;;;;;;;;;;5013279;28;94809;-80
2023/04/03 02:49:55;;;;;;;3.28;1.23;;;;;;;;;;5012313;28;94151;-79
2023/04/03 02:52:22;;;;;;;2.17;1.02;;;;;;;;;;5012682;28;94901;-79
2023/04/03 02:54:49;;;;;;;3.13;1.20;;;;;;;;;;5017952;27;94487;-78
2023/04/03 02:57:16;;;;;;;3.15;1.10;;;;;;;;;;5012532;27;94649;-79
2023/04/03 02:59:44;;;;;;;2.67;1.25;;;;;;;;;;5008271;28;94540;-79
2023/04/03 03:02:11;;;;;;;3.75;1.25;;;;;;;;;;5017242;28;95813;-79
2023/04/03 03:04:38;;;;;;;4.80;1.30;;;;;;;;;;5011733;28;92440;-79
2023/04/03 03:07:04;;;;;;;5.43;1.20;;;;;;;;;;5000151;28;92579;-79
2023/04/03 03:09:31;;;;;;;5.10;1.40;;;;;;;;;;5013893;28;97236;-80
2023/04/03 03:11:58;;;;;;;4.28;1.45;;;;;;;;;;5008864;28;92357;-80
2023/04/03 03:14:24;;;;;;;7.97;1.30;;;;;;;;;;5017669;28;94142;-80
2023/04/03 03:16:51;;;;;;;3.45;1.23;;;;;;;;;;5041054;27;92390;-82
2023/04/03 03:19:17;;;;;;;3.70;1.40;;;;;;;;;;5038209;27;92849;-82
2023/04/03 03:21:44;;;;;;;7.70;1.60;;;;;;;;;;5037024;27;95152;-81
2023/04/03 03:24:11;;;;;;;3.80;1.33;;;;;;;;;;5037757;28;92583;-81
2023/04/03 03:26:38;;;;;;;4.53;1.20;;;;;;;;;;5031418;27;92511;-81
2023/04/03 03:29:04;;;;;;;4.28;1.20;;;;;;;;;;5040737;28;95182;-82
2023/04/03 03:31:31;;;;;;;3.95;1.20;;;;;;;;;;5040157;27;93292;-82
2023/04/03 03:33:58;;;;;;;3.88;1.15;;;;;;;;;;5031909;27;92526;-82
2023/04/03 03:36:24;;;;;;;3.45;1.25;;;;;;;;;;5034745;28;92486;-80
2023/04/03 03:38:51;;;;;;;2.97;1.20;;;;;;;;;;5030385;28;94800;-80
2023/04/03 03:41:17;;;;;;;3.30;1.20;;;;;;;;;;5036080;27;92187;-80
2023/04/03 03:43:44;;;;;;;5.47;1.40;;;;;;;;;;5036366;27;92181;-80
2023/04/03 03:46:12;;;;;;;2.72;1.20;;;;;;;;;;5035832;27;94911;-80
2023/04/03 03:48:39;;;;;;;3.28;1.33;;;;;;;;;;5028293;27;93061;-80
2023/04/03 03:51:06;;;;;;;4.82;1.38;;;;;;;;;;5006470;28;92238;-81
2023/04/03 03:53:35;;;;;;;4.78;1.30;;;;;;;;;;5019785;28;95189;-80
2023/04/03 03:56:05;;;;;;;5.32;1.40;;;;;;;;;;5031685;28;95476;-80
2023/04/03 03:58:33;;;;;;;4.82;1.27;;;;;;;;;;5024126;28;92359;-81
2023/04/03 04:01:02;;;;;;;3.30;1.38;;;;;;;;;;5023628;28;92711;-81
2023/04/03 04:03:29;;;;;;;3.65;1.40;;;;;;;;;;5028885;27;91473;-81
2023/04/03 04:05:56;;;;;;;3.80;1.10;;;;;;;;;;5052446;27;92549;-80
2023/04/03 04:08:23;;;;;;;4.47;1.23;;;;;;;;;;5011835;28;95325;-81
2023/04/03 04:10:49;;;;;;;3.60;1.20;;;;;;;;;;4992808;28;101727;-81
2023/04/03 04:13:17;;;;;;;3.88;1.20;;;;;;;;;;5015849;28;97463;-81
2023/04/03 04:15:44;;;;;;;2.67;1.38;;;;;;;;;;5004619;28;94559;-80
2023/04/03 04:18:12;;;;;;;3.30;1.10;;;;;;;;;;5020118;28;92061;-81
2023/04/03 04:20:41;;;;;;;4.30;1.15;;;;;;;;;;5026950;28;94965;-81
2023/04/03 04:23:08;;;;;;;4.18;1.20;;;;;;;;;;5007500;28;92534;-81
2023/04/03 04:25:36;;;;;;;3.45;1.30;;;;;;;;;;5003427;28;95055;-81
2023/04/03 04:28:04;;;;;;;3.70;1.20;;;;;;;;;;5037213;27;94020;-81
2023/04/03 04:30:30;;;;;;;5.38;1.20;;;;;;;;;;5013865;28;92467;-81
2023/04/03 04:32:57;;;;;;;6.43;1.38;;;;;;;;;;5019278;28;94664;-81
2023/04/03 04:35:25;;;;;;;6.13;1.60;;;;;;;;;;5028197;28;97020;-80
2023/04/03 04:37:51;;;;;;;3.85;1.27;;;;;;;;;;5033703;27;92251;-80
2023/04/03 04:40:18;;;;;;;8.57;1.50;;;;;;;;;;5036510;27;93267;-80
2023/04/03 04:42:45;;;;;;;4.80;1.20;;;;;;;;;;5031876;28;92267;-80
2023/04/03 04:45:12;;;;;;;5.05;1.42;;;;;;;;;;5038761;27;94712;-80
2023/04/03 04:47:41;;;;;;;4.72;1.58;;;;;;;;;;5034019;27;95816;-79
2023/04/03 04:50:08;;;;;;;;;;;;;;;;;;5011067;28;92395;-79
2023/04/03 04:52:34;;;;;;;3.97;1.13;;;;;;;;;;5000946;28;116369;-78
2023/04/03 04:55:01;;;;;;;6.43;1.40;;;;;;;;;;4999497;28;95014;-78
2023/04/03 04:57:28;;;;;;;4.13;1.15;;;;;;;;;;4998723;28;92930;-79
2023/04/03 04:59:57;;;;;;;4.47;1.20;;;;;;;;;;4984726;28;94649;-79
2023/04/03 05:02:24;;;;;;;3.42;1.40;;;;;;;;;;5027498;28;92159;-79
2023/04/03 05:04:51;;;;;;;3.15;1.20;;;;;;;;;;5008396;28;93723;-79
2023/04/03 05:07:22;;;;;;;3.28;1.30;;;;;;;;;;4997253;28;94471;-80
2023/04/03 05:09:51;;;;;;;3.60;1.40;;;;;;;;;;5008136;28;92728;-80
2023/04/03 05:12:18;;;;;;;3.63;1.58;;;;;;;;;;5015471;28;94834;-78
2023/04/03 05:14:51;;;;;;;5.78;1.42;;;;;;;;;;5015629;28;95202;-80
2023/04/03 05:17:18;;;;;;;4.43;1.23;;;;;;;;;;5020470;27;91793;-78
2023/04/03 05:19:49;;;;;;;4.75;1.23;;;;;;;;;;5002994;28;94239;-79
2023/04/03 05:22:18;;;;;;;3.55;1.20;;;;;;;;;;5021077;28;95386;-79
2023/04/03 05:24:45;;;;;;;3.33;1.30;;;;;;;;;;5032704;27;94476;-79
2023/04/03 05:27:11;;;;;;;5.25;1.60;;;;;;;;;;5035980;27;94467;-81
2023/04/03 05:29:43;;;;;;;4.32;1.55;;;;;;;;;;5034190;27;92355;-80
2023/04/03 05:32:15;;;;;;;4.90;1.40;;;;;;;;;;4992332;28;94156;-81
2023/04/03 05:34:43;;;;;;;3.33;1.27;;;;;;;;;;5014981;28;93902;-81
2023/04/03 05:37:10;;;;;;;3.05;1.10;;;;;;;;;;5017602;27;92517;-79
2023/04/03 05:39:40;;;;;;;4.88;1.70;;;;;;;;;;5031937;27;94992;-80
2023/04/03 05:42:07;;;;;;;4.15;1.30;;;;;;;;;;5001825;28;92281;-80
2023/04/03 05:44:33;;;;;;;5.28;1.20;;;;;;;;;;5017143;28;92307;-79
2023/04/03 05:47:00;;;;;;;3.88;1.40;;;;;;;;;;5013509;28;94746;-80
2023/04/03 05:49:27;;;;;;;4.15;1.20;;;;;;;;;;5006298;28;95241;-79
2023/04/03 05:51:54;;;;;;;5.32;1.50;;;;;;;;;;5017526;28;97413;-78
2023/04/03 05:54:25;;;;;;;4.05;1.50;;;;;;;;;;5017653;28;95771;-79
2023/04/03 05:56:56;;;;;;;3.95;1.25;;;;;;;;;;5017762;28;92158;-79
2023/04/03 05:59:23;;;;;;;3.67;1.20;;;;;;;;;;5019973;27;94224;-80
2023/04/03 06:01:52;;;;;;;3.38;1.25;;;;;;;;;;5034392;28;95509;-80
2023/04/03 06:04:20;;;;;;;4.85;1.45;;;;;;;;;;5007255;28;99093;-80
2023/04/03 06:06:47;;;;;;;;;;;;;;;;;;5041209;27;95147;-79
2023/04/03 06:09:16;;;;;;;6.03;1.40;;;;;;;;;;5024749;28;92489;-81
2023/04/03 06:11:42;;;;;;;;;;;;;;;;;;5034884;27;92347;-82
2023/04/03 06:14:09;;;;;;;4.72;1.50;;;;;;;;;;5016778;28;116726;-83
2023/04/03 06:16:37;;;;;;;5.18;1.60;;;;;;;;;;5000977;28;92583;-81
2023/04/03 06:19:09;;;;;;;5.50;1.77;;;;;;;;;;5018009;28;93877;-84
2023/04/03 06:21:38;;;;;;;3.90;1.60;;;;;;;;;;5029191;28;94761;-82
2023/04/03 06:24:05;;;;;;;6.38;1.95;;;;;;;;;;5025653;28;92380;-81
2023/04/03 06:26:33;;;;;;;6.93;1.70;;;;;;;;;;5037747;27;92976;-81
2023/04/03 06:28:59;;;;;;;5.63;1.95;;;;;;;;;;5029669;28;92428;-82
2023/04/03 06:31:26;;;;;;;6.05;1.90;;;;;;;;;;5008821;27;92427;-81
2023/04/03 06:33:52;;;;;;;4.82;1.65;;;;;;;;;;5025668;27;93215;-81
2023/04/03 06:36:20;;;;;;;7.88;1.90;;;;;;;;;;5012377;28;92163;-83
2023/04/03 06:38:47;;;;;;;6.63;1.92;;;;;;;;;;5014904;28;94515;-80
2023/04/03 06:41:14;;;;;;;6.78;2.00;;;;;;;;;;5030948;27;94755;-80
2023/04/03 06:43:40;;;;;;;6.43;1.90;;;;;;;;;;4996775;28;93553;-82
2023/04/03 06:55:47;;;;;;;4.30;1.30;;;;;;;;;;5103204;27;86045;-81
2023/04/03 06:58:15;;;;;;;6.50;1.48;;;;;;;;;;5081000;27;87017;-81
2023/04/03 07:00:41;;;;;;;;;;;;;;;;;;5061576;27;86839;-81
2023/04/03 07:03:08;;;;;;;5.03;1.60;;;;;;;;;;5062348;27;89246;-81
2023/04/03 07:05:34;;;;;;;5.68;1.35;;;;;;;;;;5079232;27;86664;-81
2023/04/03 07:08:01;;;;;;;6.43;1.50;;;;;;;;;;5080108;27;86797;-81
2023/04/03 07:10:28;;;;;;;4.38;1.45;;;;;;;;;;5060483;27;88033;-82
2023/04/03 07:12:55;;;;;;;3.75;1.50;;;;;;;;;;5075110;27;86966;-82
2023/04/03 07:15:21;;;;;;;5.03;1.60;;;;;;;;;;5063303;27;86999;-82
2023/04/03 07:17:48;;;;;;;5.00;1.55;;;;;;;;;;5059167;27;91471;-82
2023/04/03 07:20:15;;;;;;;5.57;1.67;;;;;;;;;;5043528;27;88971;-81
2023/04/03 07:22:41;;;;;;;5.05;1.60;;;;;;;;;;5073645;27;86708;-81
2023/04/03 07:25:08;;;;;;;4.10;1.48;;;;;;;;;;5060778;27;87124;-81
2023/04/03 07:27:34;;;;;;;5.70;1.70;;;;;;;;;;5074164;27;86856;-82
2023/04/03 07:30:01;;;;;;;4.75;1.42;;;;;;;;;;5062131;27;87331;-81
2023/04/03 07:32:28;;;;;;;6.10;1.60;;;;;;;;;;5066769;27;86858;-81
2023/04/03 07:34:55;;;;;;;5.35;1.38;;;;;;;;;;5064913;27;86659;-82
2023/04/03 07:37:22;;;;;;;7.15;1.50;;;;;;;;;;5060359;27;87298;-81
2023/04/03 07:39:48;;;;;;;5.13;1.50;;;;;;;;;;5069492;27;87438;-80
2023/04/03 07:42:18;;;;;;;4.65;1.50;;;;;;;;;;5054381;27;88103;-79
2023/04/03 07:44:56;;;;;;;5.40;1.48;;;;;;;;;;5064051;27;88395;-81
2023/04/03 07:47:23;;;;;;;4.22;1.20;;;;;;;;;;5051737;27;89245;-81
2023/04/03 07:49:50;;;;;;;3.38;1.10;;;;;;;;;;5078582;27;87392;-80
2023/04/03 07:52:16;;;;;;;3.65;1.00;;;;;;;;;;5073249;27;86696;-82
2023/04/03 07:54:46;;;;;;;3.75;1.20;;;;;;;;;;5076223;27;86643;-81
2023/04/03 07:57:13;;;;;;;2.63;0.95;;;;;;;;;;5054288;27;89193;-80
2023/04/03 07:59:40;;;;;;;1.85;0.93;;;;;;;;;;5067513;27;88658;-80
2023/04/03 08:02:08;;;;;;;3.10;1.00;;;;;;;;;;5075596;27;87140;-81
2023/04/03 08:04:35;;;;;;;3.00;1.00;;;;;;;;;;5050422;27;89136;-80
2023/04/03 08:07:02;;;;;;;3.10;0.90;;;;;;;;;;5040638;27;86577;-81
2023/04/03 08:09:55;;;;;;;3.47;1.00;;;;;;;;;;5039876;27;87334;-82
2023/04/03 08:12:21;;;;;;;3.05;1.00;;;;;;;;;;5040440;27;87585;-80
2023/04/03 08:14:48;;;;;;;2.83;0.90;;;;;;;;;;5045169;27;86458;-80
2023/04/03 08:17:14;;;;;;;2.38;1.00;;;;;;;;;;5041408;27;86328;-81
2023/04/03 08:19:41;;;;;;;2.38;0.90;;;;;;;;;;5026837;28;88333;-79
2023/04/03 08:22:07;;;;;;;2.75;0.95;;;;;;;;;;5023550;27;88117;-79
2023/04/03 08:24:34;;;;;;;2.40;0.90;;;;;;;;;;5045138;27;86649;-79
2023/04/03 08:27:02;;;;;;;3.38;0.80;;;;;;;;;;5044550;27;86604;-79
2023/04/03 08:29:29;;;;;;;3.17;1.00;;;;;;;;;;5044337;27;87086;-79
2023/04/03 08:32:00;;;;;;;2.78;0.90;;;;;;;;;;5043832;27;87503;-79
2023/04/03 08:34:26;;;;;;;4.55;1.00;;;;;;;;;;5041300;27;86544;-79
2023/04/03 08:36:53;;;;;;;6.07;0.90;;;;;;;;;;5042869;27;87007;-78
2023/04/03 08:39:19;;;;;;;3.13;1.00;;;;;;;;;;5035360;27;89755;-79
2023/04/03 08:41:47;;;;;;;2.80;0.80;;;;;;;;;;5041577;27;86894;-79
2023/04/03 08:44:15;;;;;;;3.80;1.00;;;;;;;;;;5044637;27;86847;-79
2023/04/03 08:46:52;;;;;;;1.77;0.95;;;;;;;;;;5041473;27;87692;-79
2023/04/03 08:49:50;;;;;;;2.35;0.80;;;;;;;;;;5031789;27;87052;-79
2023/04/03 08:52:18;;;;;;;2.50;0.73;;;;;;;;;;5030971;27;87687;-80
2023/04/03 08:54:55;;;;;;;1.98;0.73;;;;;;;;;;5038413;27;88247;-82
2023/04/03 08:57:42;;;;;;;3.47;1.00;;;;;;;;;;5039699;27;86688;-82
2023/04/03 09:00:12;;;;;;;3.38;0.80;;;;;;;;;;5039302;27;87092;-82
2023/04/03 09:02:44;;;;;;;2.55;0.90;;;;;;;;;;5033974;27;86511;-82
2023/04/03 09:05:15;;;;;;;2.78;0.85;;;;;;;;;;5042359;27;86902;-82
2023/04/03 09:07:44;;;;;;;1.88;0.80;;;;;;;;;;5029680;27;86452;-82
2023/04/03 09:10:14;;;;;;;2.40;0.70;;;;;;;;;;5027303;27;89230;-81
2023/04/03 09:12:44;;;;;;;3.03;0.98;;;;;;;;;;5042971;27;87304;-80
2023/04/03 09:15:18;;;;;;;1.60;0.65;;;;;;;;;;5044367;27;86665;-80
2023/04/03 09:18:07;;;;;;;1.88;0.80;;;;;;;;;;5033278;28;89632;-80
2023/04/03 09:20:53;;;;;;;2.22;0.75;;;;;;;;;;5038605;27;88662;-81
2023/04/03 09:23:26;;;;;;;1.95;0.80;;;;;;;;;;5020271;27;87009;-81
2023/04/03 09:25:53;;;;;;;;;;;;;;;;;;5044838;27;86762;-81
2023/04/03 09:28:19;;;;;;;1.63;0.70;;;;;;;;;;5048556;27;95144;-82
2023/04/03 09:30:46;;;;;;;1.83;0.60;;;;;;;;;;5036845;28;89233;-83
2023/04/03 09:33:13;;;;;;;2.20;0.90;;;;;;;;;;5043982;27;88336;-82
2023/04/03 09:35:40;;;;;;;3.20;0.80;;;;;;;;;;5044483;27;86765;-82
2023/04/03 09:38:14;;;;;;;1.80;0.65;;;;;;;;;;5033279;28;86588;-82
2023/04/03 09:40:42;;;;;;;2.00;0.63;;;;;;;;;;5043726;27;87008;-81
2023/04/03 09:43:17;;;;;;;4.68;0.70;;;;;;;;;;5036947;27;86565;-83
2023/04/03 09:45:45;;;;;;;1.30;0.70;;;;;;;;;;5044393;27;87146;-83
2023/04/03 09:48:15;;;;;;;2.75;0.70;;;;;;;;;;5044336;27;89318;-82
2023/04/03 09:51:01;;;;;;;1.08;0.63;;;;;;;;;;5067808;27;86830;-81
2023/04/03 09:53:41;;;;;;;1.52;0.70;;;;;;;;;;5032361;27;88177;-83
2023/04/03 09:56:17;;;;;;;1.98;0.60;;;;;;;;;;5065198;27;87392;-80
2023/04/03 09:58:45;;;;;;;2.83;0.65;;;;;;;;;;5046376;27;88853;-81
2023/04/03 10:01:24;;;;;;;2.70;0.85;;;;;;;;;;5037010;27;87813;-81
2023/04/03 10:04:10;;;;;;;4.22;0.80;;;;;;;;;;5038692;28;86568;-82
2023/04/03 10:06:40;;;;;;;2.55;0.80;;;;;;;;;;5042000;27;86825;-80
2023/04/03 10:09:20;;;;;;;2.78;0.80;;;;;;;;;;5043435;27;86721;-79
2023/04/03 10:12:01;;;;;;;1.98;0.65;;;;;;;;;;5040597;27;87205;-80
2023/04/03 10:14:28;;;;;;;1.80;0.90;;;;;;;;;;5043155;28;89589;-82
2023/04/03 10:16:55;;;;;;;2.42;0.60;;;;;;;;;;5044905;27;86872;-82
2023/04/03 10:19:37;;;;;;;2.95;1.00;;;;;;;;;;5043148;27;87215;-80
2023/04/03 10:22:14;;;;;;;1.48;0.70;;;;;;;;;;5033992;27;87223;-81
2023/04/03 10:24:43;;;;;;;1.25;0.70;;;;;;;;;;5053448;27;86946;-81
2023/04/03 10:27:10;;;;;;;2.28;0.70;;;;;;;;;;5032720;27;88745;-81
2023/04/03 10:29:55;;;;;;;2.90;0.70;;;;;;;;;;5062273;27;87066;-81
2023/04/03 10:32:31;;;;;;;1.27;0.60;;;;;;;;;;5028247;28;86753;-82
2023/04/03 10:35:18;;;;;;;2.25;0.80;;;;;;;;;;5039864;27;86769;-81
2023/04/03 10:37:52;;;;;;;2.40;0.70;;;;;;;;;;5027285;28;91463;-81
2023/04/03 10:40:27;;;;;;;0.60;0.52;;;;;;;;;;5034479;27;87758;-82
2023/04/03 10:43:14;;;;;;;2.33;0.77;;;;;;;;;;5027100;27;87279;-82
2023/04/03 10:45:44;;;;;;;1.25;0.50;;;;;;;;;;5026612;27;93637;-81
2023/04/03 10:48:29;;;;;;;1.92;0.68;;;;;;;;;;5039564;28;86716;-82
2023/04/03 10:51:06;;;;;;;0.95;0.73;;;;;;;;;;5040635;27;90128;-81
2023/04/03 10:53:51;;;;;;;1.42;0.70;;;;;;;;;;5026977;27;90849;-82
2023/04/03 10:56:36;;;;;;;1.05;0.55;;;;;;;;;;5043403;27;87238;-82
2023/04/03 10:59:16;;;;;;;1.30;0.52;;;;;;;;;;5050762;27;86705;-82
2023/04/03 11:01:42;;;;;;;;;;;;;;;;;;5027094;28;93180;-82
2023/04/03 11:04:10;;;;;;;1.95;0.70;;;;;;;;;;5041965;27;114652;-82
2023/04/03 11:06:49;;;;;;;1.25;0.52;;;;;;;;;;5041619;27;88813;-83
2023/04/03 11:09:15;;;;;;;2.50;0.60;;;;;;;;;;5043846;27;88624;-82
2023/04/03 11:11:43;;;;;;;1.27;0.60;;;;;;;;;;5040637;27;87514;-82
2023/04/03 11:14:29;;;;;;;1.83;0.63;;;;;;;;;;5029131;28;88021;-82
2023/04/03 11:17:01;;;;;;;0.98;0.40;;;;;;;;;;5044459;27;88620;-82
2023/04/03 11:19:35;;;;;;;1.00;0.50;;;;;;;;;;5060994;27;88955;-82
2023/04/03 11:22:05;;;;;;;1.20;0.50;;;;;;;;;;5047309;27;88328;-82
2023/04/03 11:24:32;;;;;;;2.00;0.70;;;;;;;;;;5068533;27;89544;-82
2023/04/03 11:27:00;;;;;;;1.65;0.60;;;;;;;;;;5061169;27;88121;-82
2023/04/03 11:29:31;;;;;;;2.13;0.60;;;;;;;;;;5042662;27;90406;-82
2023/04/03 11:32:06;;;;;;;1.52;0.63;;;;;;;;;;5043593;27;89475;-82
2023/04/03 11:34:41;;;;;;;1.05;0.40;;;;;;;;;;5036294;27;88135;-83
2023/04/03 11:37:26;;;;;;;2.00;0.60;;;;;;;;;;5028151;27;87002;-82
2023/04/03 11:39:53;;;;;;;;;;;;;;;;;;5028768;28;88186;-82
2023/04/03 11:42:19;;;;;;;1.17;0.50;;;;;;;;;;5025371;28;87972;-82
2023/04/03 11:44:46;;;;;;;2.03;0.57;;;;;;;;;;5029750;28;89020;-82
2023/04/03 11:47:32;;;;;;;2.13;0.50;;;;;;;;;;5022022;28;91452;-82
2023/04/03 11:50:06;;;;;;;0.88;0.50;;;;;;;;;;5040507;27;89691;-82
2023/04/03 11:52:39;;;;;;;1.13;0.60;;;;;;;;;;5045472;27;87703;-83
2023/04/03 11:55:21;;;;;;;1.08;0.60;;;;;;;;;;5023619;27;90791;-83
2023/04/03 11:57:50;;;;;;;5.05;1.05;;;;;;;;;;5042555;27;88867;-84
2023/04/03 12:00:36;;;;;;;4.90;0.70;;;;;;;;;;5055708;27;89141;-84
2023/04/03 12:03:22;;;;;;;7.13;0.70;;;;;;;;;;5037802;27;88408;-84
2023/04/03 12:05:50;;;;;;;3.25;0.77;;;;;;;;;;5042292;27;93232;-85
2023/04/03 12:08:29;;;;;;;2.38;0.65;;;;;;;;;;5044898;28;88381;-85
2023/04/03 12:11:16;;;;;;;2.90;0.60;;;;;;;;;;5040828;27;89014;-82
2023/04/03 12:13:49;;;;;;;2.17;0.45;;;;;;;;;;5042379;28;94046;-83
2023/04/03 12:16:18;;;;;;;3.20;0.73;;;;;;;;;;5039456;27;88212;-83
2023/04/03 12:18:51;;;;;;;1.75;0.57;;;;;;;;;;5052803;27;93804;-84
2023/04/03 12:21:22;;;;;;;1.77;0.60;;;;;;;;;;5058327;27;87876;-83
2023/04/03 12:24:01;;;;;;;1.63;0.50;;;;;;;;;;5072665;27;87975;-83
2023/04/03 12:26:31;;;;;;;1.17;0.50;;;;;;;;;;5063020;27;88461;-84
2023/04/03 12:29:34;;;;;;;1.40;0.50;;;;;;;;;;5051058;27;87921;-84
2023/04/03 12:32:00;;;;;;;2.83;0.55;;;;;;;;;;4999439;28;88067;-83
2023/04/03 12:34:45;;;;;;;2.40;0.57;;;;;;;;;;5044499;28;88573;-83
2023/04/03 12:37:15;;;;;;;2.15;0.68;;;;;;;;;;5043135;27;88598;-83
2023/04/03 12:39:44;;;;;;;1.42;0.60;;;;;;;;;;5051181;27;88571;-84
2023/04/03 12:42:30;;;;;;;4.20;0.60;;;;;;;;;;5052150;27;88159;-84
2023/04/03 12:45:02;;;;;;;2.05;0.57;;;;;;;;;;5055676;27;89114;-82
2023/04/03 12:47:32;;;;;;;3.95;0.70;;;;;;;;;;5005916;27;90937;-81
2023/04/03 12:50:00;;;;;;;3.72;0.80;;;;;;;;;;5060030;27;88170;-81
2023/04/03 12:52:32;;;;;;;2.45;0.63;;;;;;;;;;5060360;27;87925;-81
2023/04/03 12:55:03;;;;;;;2.67;0.90;;;;;;;;;;5065019;27;87864;-81
2023/04/03 12:57:30;;;;;;;2.30;0.70;;;;;;;;;;5059012;27;92657;-81
2023/04/03 12:59:57;;;;;;;2.38;0.63;;;;;;;;;;5060918;27;90020;-81
2023/04/03 13:02:26;;;;;;;2.30;0.65;;;;;;;;;;5058380;27;90531;-80
2023/04/03 13:04:53;;;;;;;2.20;0.75;;;;;;;;;;5044012;27;89137;-80
2023/04/03 13:07:33;;;;;;;2.80;0.73;;;;;;;;;;5023335;27;90424;-81
2023/04/03 13:10:00;;;;;;;2.80;0.85;;;;;;;;;;5036020;27;88589;-82
2023/04/03 13:12:26;;;;;;;2.65;0.80;;;;;;;;;;5016560;27;89717;-81
2023/04/03 13:14:54;;;;;;;2.65;0.70;;;;;;;;;;5052477;27;88690;-82
2023/04/03 13:17:22;;;;;;;3.13;0.70;;;;;;;;;;5042462;27;92443;-81
2023/04/03 13:19:51;;;;;;;1.73;0.73;;;;;;;;;;5027241;27;90383;-80
2023/04/03 13:22:28;;;;;;;1.70;0.60;;;;;;;;;;5060934;27;87999;-80
2023/04/03 13:24:56;;;;;;;2.55;0.50;;;;;;;;;;5057984;27;88364;-80
2023/04/03 13:27:23;;;;;;;1.95;0.80;;;;;;;;;;5059513;27;89486;-80
2023/04/03 13:29:54;;;;;;;1.23;0.63;;;;;;;;;;5061380;27;88016;-79
2023/04/03 13:32:22;;;;;;;1.85;0.80;;;;;;;;;;5042672;27;89889;-79
2023/04/03 13:34:49;;;;;;;2.67;0.68;;;;;;;;;;5059878;27;88647;-80
2023/04/03 13:37:34;;;;;;;2.17;0.90;;;;;;;;;;5045359;27;89570;-82
2023/04/03 13:40:01;;;;;;;1.92;0.70;;;;;;;;;;5049293;27;88341;-81
2023/04/03 13:42:29;;;;;;;3.15;0.88;;;;;;;;;;5051053;27;88245;-80
2023/04/03 13:45:11;;;;;;;2.28;0.70;;;;;;;;;;5034121;27;88056;-78
2023/04/03 13:47:42;;;;;;;2.45;0.70;;;;;;;;;;5050122;27;92855;-79
2023/04/03 13:50:11;;;;;;;0.50;0.50;;;;;;;;;;5050550;27;88066;-80
2023/04/03 13:52:47;;;;;;;1.30;0.60;;;;;;;;;;5050103;27;89065;-81
2023/04/03 13:55:22;;;;;;;2.00;0.70;;;;;;;;;;5028313;27;89313;-80
2023/04/03 13:58:03;;;;;;;2.38;0.70;;;;;;;;;;5026617;28;87676;-83
2023/04/03 14:00:58;;;;;;;1.92;0.70;;;;;;;;;;5034323;27;88052;-83
2023/04/03 14:03:27;;;;;;;2.08;0.70;;;;;;;;;;4969410;28;87943;-82
2023/04/03 14:05:54;;;;;;;3.03;0.80;;;;;;;;;;5045290;27;90138;-81
2023/04/03 14:08:21;;;;;;;2.63;0.70;;;;;;;;;;5033952;27;89247;-81
2023/04/03 14:11:01;;;;;;;1.35;0.60;;;;;;;;;;5042078;27;87412;-82
2023/04/03 14:13:31;;;;;;;0.95;0.50;;;;;;;;;;5038218;27;87794;-81
2023/04/03 14:15:57;;;;;;;1.98;0.60;;;;;;;;;;5042698;27;87937;-80
2023/04/03 14:18:38;;;;;;;1.83;0.70;;;;;;;;;;5056585;27;88674;-80
2023/04/03 14:21:05;;;;;;;1.00;0.50;;;;;;;;;;5039998;27;88249;-80
2023/04/03 14:23:32;;;;;;;1.30;0.65;;;;;;;;;;5061357;27;88836;-80
2023/04/03 14:26:00;;;;;;;1.67;0.73;;;;;;;;;;5058242;27;88230;-80
2023/04/03 14:28:26;;;;;;;4.40;0.73;;;;;;;;;;5039562;27;88670;-80
2023/04/03 14:30:53;;;;;;;1.10;0.60;;;;;;;;;;5039117;27;88050;-81
2023/04/03 14:33:21;;;;;;;0.57;0.50;;;;;;;;;;5035315;27;88107;-82
2023/04/03 14:35:48;;;;;;;2.92;0.77;;;;;;;;;;5041115;27;89597;-81
2023/04/03 14:38:23;;;;;;;1.95;0.60;;;;;;;;;;5038829;28;89081;-81
2023/04/03 14:40:50;;;;;;;1.92;0.70;;;;;;;;;;5023855;27;87951;-80
2023/04/03 14:43:17;;;;;;;2.75;0.80;;;;;;;;;;5022077;27;89556;-80
2023/04/03 14:45:44;;;;;;;2.70;0.90;;;;;;;;;;5040525;27;88025;-80
2023/04/03 14:48:19;;;;;;;0.93;0.57;;;;;;;;;;5022597;28;88246;-80
2023/04/03 14:50:45;;;;;;;2.50;0.80;;;;;;;;;;5025708;27;87805;-81
2023/04/03 14:53:32;;;;;;;1.30;0.70;;;;;;;;;;5020817;28;92136;-80
2023/04/03 14:56:31;;;;;;;1.33;0.60;;;;;;;;;;5021751;28;90529;-80
2023/04/03 14:58:59;;;;;;;1.95;0.57;;;;;;;;;;4999524;28;88001;-81
2023/04/03 15:01:28;;;;;;;1.42;0.80;;;;;;;;;;4999891;28;90791;-80
2023/04/03 15:03:54;;;;;;;1.33;0.65;;;;;;;;;;4981929;28;88362;-81
2023/04/03 15:06:22;;;;;;;2.15;0.75;;;;;;;;;;4982450;28;87996;-80
2023/04/03 15:08:48;;;;;;;1.00;0.60;;;;;;;;;;4992395;27;88470;-79
2023/04/03 15:11:15;;;;;;;2.78;0.80;;;;;;;;;;4999794;28;94425;-80
2023/04/03 15:13:41;;;;;;;2.80;0.80;;;;;;;;;;5031256;28;90428;-80